sensor_id;sensor_type;location;lat;lon;timestamp;pressure;altitude;pressure_sealevel;temperature;humidity
18988;BME280;5494;51.796;10.952;2023-07-31T00:02:17;98530.22;;;17.57;83.23
18988;BME280;5494;51.796;10.952;2023-07-31T00:04:45;98526.31;;;17.51;83.98
18988;BME280;5494;51.796;10.952;2023-07-31T00:07:13;98526.19;;;17.53;83.99
18988;BME280;5494;51.796;10.952;2023-07-31T00:09:42;98517.63;;;17.51;84.56
18988;BME280;5494;51.796;10.952;2023-07-31T00:12:10;98510.69;;;17.50;84.80
18988;BME280;5494;51.796;10.952;2023-07-31T00:14:38;98514.16;;;17.50;85.62
18988;BME280;5494;51.796;10.952;2023-07-31T00:17:07;98514.13;;;17.41;86.63
18988;BME280;5494;51.796;10.952;2023-07-31T00:19:35;98515.22;;;17.38;86.46
18988;BME280;5494;51.796;10.952;2023-07-31T00:22:04;98512.47;;;17.40;86.83
18988;BME280;5494;51.796;10.952;2023-07-31T00:24:33;98512.19;;;17.43;87.45
18988;BME280;5494;51.796;10.952;2023-07-31T00:27:01;98507.19;;;17.40;87.70
18988;BME280;5494;51.796;10.952;2023-07-31T00:29:29;98499.44;;;17.38;87.39
18988;BME280;5494;51.796;10.952;2023-07-31T00:31:58;98492.16;;;17.42;87.83
18988;BME280;5494;51.796;10.952;2023-07-31T00:34:27;98499.22;;;17.51;88.12
18988;BME280;5494;51.796;10.952;2023-07-31T00:36:55;98498.63;;;17.68;87.33
18988;BME280;5494;51.796;10.952;2023-07-31T00:39:23;98491.44;;;17.40;88.48
18988;BME280;5494;51.796;10.952;2023-07-31T00:41:51;98482.41;;;17.32;91.90
18988;BME280;5494;51.796;10.952;2023-07-31T00:44:20;98472.00;;;17.21;95.60
18988;BME280;5494;51.796;10.952;2023-07-31T00:46:48;98465.03;;;17.11;100.00
18988;BME280;5494;51.796;10.952;2023-07-31T00:49:16;98469.66;;;16.98;100.00
18988;BME280;5494;51.796;10.952;2023-07-31T00:51:46;98468.13;;;16.95;100.00
18988;BME280;5494;51.796;10.952;2023-07-31T00:54:14;98462.25;;;16.82;100.00
18988;BME280;5494;51.796;10.952;2023-07-31T00:56:46;98452.41;;;16.74;100.00
18988;BME280;5494;51.796;10.952;2023-07-31T00:59:15;98451.00;;;16.70;100.00
18988;BME280;5494;51.796;10.952;2023-07-31T01:01:46;98446.59;;;16.71;100.00
18988;BME280;5494;51.796;10.952;2023-07-31T01:04:14;98445.88;;;16.69;100.00
18988;BME280;5494;51.796;10.952;2023-07-31T01:06:55;98437.56;;;16.64;100.00
18988;BME280;5494;51.796;10.952;2023-07-31T01:09:57;98430.84;;;16.60;100.00
18988;BME280;5494;51.796;10.952;2023-07-31T01:12:31;98424.63;;;16.51;100.00
18988;BME280;5494;51.796;10.952;2023-07-31T01:15:05;98403.75;;;16.49;100.00
18988;BME280;5494;51.796;10.952;2023-07-31T01:17:34;98419.50;;;16.49;100.00
18988;BME280;5494;51.796;10.952;2023-07-31T01:20:11;98408.16;;;16.49;100.00
18988;BME280;5494;51.796;10.952;2023-07-31T01:23:13;98415.31;;;16.47;100.00
18988;BME280;5494;51.796;10.952;2023-07-31T01:26:00;98418.78;;;16.47;100.00
18988;BME280;5494;51.796;10.952;2023-07-31T01:28:40;98421.34;;;16.38;100.00
18988;BME280;5494;51.796;10.952;2023-07-31T01:31:19;98429.47;;;16.35;100.00
18988;BME280;5494;51.796;10.952;2023-07-31T01:33:49;98432.16;;;16.24;100.00
18988;BME280;5494;51.796;10.952;2023-07-31T01:36:18;98424.53;;;16.21;100.00
18988;BME280;5494;51.796;10.952;2023-07-31T01:38:46;98416.94;;;16.18;100.00
18988;BME280;5494;51.796;10.952;2023-07-31T01:41:17;98418.97;;;16.14;100.00
18988;BME280;5494;51.796;10.952;2023-07-31T01:43:46;98421.69;;;16.12;100.00
18988;BME280;5494;51.796;10.952;2023-07-31T01:46:14;98417.69;;;16.08;100.00
18988;BME280;5494;51.796;10.952;2023-07-31T01:48:43;98412.81;;;16.04;100.00
18988;BME280;5494;51.796;10.952;2023-07-31T01:51:11;98411.78;;;15.95;100.00
18988;BME280;5494;51.796;10.952;2023-07-31T01:53:39;98415.84;;;15.88;100.00
18988;BME280;5494;51.796;10.952;2023-07-31T01:56:07;98413.84;;;15.81;100.00
18988;BME280;5494;51.796;10.952;2023-07-31T01:58:37;98400.97;;;15.77;100.00
18988;BME280;5494;51.796;10.952;2023-07-31T02:01:05;98407.56;;;15.72;100.00
18988;BME280;5494;51.796;10.952;2023-07-31T02:03:34;98411.63;;;15.76;100.00
18988;BME280;5494;51.796;10.952;2023-07-31T02:06:02;98402.91;;;15.75;100.00
18988;BME280;5494;51.796;10.952;2023-07-31T02:08:30;98397.78;;;15.74;100.00
18988;BME280;5494;51.796;10.952;2023-07-31T02:10:58;98401.88;;;15.67;100.00
18988;BME280;5494;51.796;10.952;2023-07-31T02:13:26;98387.94;;;15.66;100.00
18988;BME280;5494;51.796;10.952;2023-07-31T02:15:56;98391.75;;;15.62;100.00
18988;BME280;5494;51.796;10.952;2023-07-31T02:18:25;98383.75;;;15.64;100.00
18988;BME280;5494;51.796;10.952;2023-07-31T02:20:53;98382.69;;;15.66;100.00
18988;BME280;5494;51.796;10.952;2023-07-31T02:23:21;98382.56;;;15.68;100.00
18988;BME280;5494;51.796;10.952;2023-07-31T02:25:49;98377.81;;;15.62;100.00
18988;BME280;5494;51.796;10.952;2023-07-31T02:28:18;98376.63;;;15.66;100.00
18988;BME280;5494;51.796;10.952;2023-07-31T02:30:46;98373.41;;;15.62;100.00
18988;BME280;5494;51.796;10.952;2023-07-31T02:33:15;98368.75;;;15.66;100.00
18988;BME280;5494;51.796;10.952;2023-07-31T02:35:43;98369.59;;;15.66;100.00
18988;BME280;5494;51.796;10.952;2023-07-31T02:38:11;98362.69;;;15.65;100.00
18988;BME280;5494;51.796;10.952;2023-07-31T02:40:41;98345.56;;;15.61;100.00
18988;BME280;5494;51.796;10.952;2023-07-31T02:43:09;98342.66;;;15.64;100.00
18988;BME280;5494;51.796;10.952;2023-07-31T02:45:37;98345.56;;;15.61;100.00
18988;BME280;5494;51.796;10.952;2023-07-31T02:48:05;98351.75;;;15.60;100.00
18988;BME280;5494;51.796;10.952;2023-07-31T02:50:38;98332.56;;;15.60;100.00
18988;BME280;5494;51.796;10.952;2023-07-31T02:53:06;98345.28;;;15.64;100.00
18988;BME280;5494;51.796;10.952;2023-07-31T02:55:34;98342.94;;;15.61;100.00
18988;BME280;5494;51.796;10.952;2023-07-31T02:58:02;98334.56;;;15.67;100.00
18988;BME280;5494;51.796;10.952;2023-07-31T03:00:30;98326.09;;;15.75;100.00
18988;BME280;5494;51.796;10.952;2023-07-31T03:02:58;98327.28;;;15.71;100.00
18988;BME280;5494;51.796;10.952;2023-07-31T03:05:27;98323.56;;;15.73;100.00
18988;BME280;5494;51.796;10.952;2023-07-31T03:07:56;98324.97;;;15.77;100.00
18988;BME280;5494;51.796;10.952;2023-07-31T03:10:25;98323.19;;;15.78;100.00
18988;BME280;5494;51.796;10.952;2023-07-31T03:12:53;98326.53;;;15.80;100.00
18988;BME280;5494;51.796;10.952;2023-07-31T03:15:21;98316.16;;;15.79;100.00
18988;BME280;5494;51.796;10.952;2023-07-31T03:17:49;98326.41;;;15.82;100.00
18988;BME280;5494;51.796;10.952;2023-07-31T03:20:17;98325.81;;;15.78;100.00
18988;BME280;5494;51.796;10.952;2023-07-31T03:22:46;98321.78;;;15.74;100.00
18988;BME280;5494;51.796;10.952;2023-07-31T03:25:15;98324.66;;;15.71;100.00
18988;BME280;5494;51.796;10.952;2023-07-31T03:27:44;98326.44;;;15.70;100.00
18988;BME280;5494;51.796;10.952;2023-07-31T03:30:12;98332.91;;;15.66;100.00
18988;BME280;5494;51.796;10.952;2023-07-31T03:32:40;98334.81;;;15.64;100.00
18988;BME280;5494;51.796;10.952;2023-07-31T03:35:08;98327.75;;;15.76;100.00
18988;BME280;5494;51.796;10.952;2023-07-31T03:37:37;98325.03;;;15.66;100.00
18988;BME280;5494;51.796;10.952;2023-07-31T03:40:08;98336.69;;;15.73;100.00
18988;BME280;5494;51.796;10.952;2023-07-31T03:42:37;98326.81;;;15.66;100.00
18988;BME280;5494;51.796;10.952;2023-07-31T03:45:08;98327.16;;;15.72;100.00
18988;BME280;5494;51.796;10.952;2023-07-31T03:47:36;98328.63;;;15.65;100.00
18988;BME280;5494;51.796;10.952;2023-07-31T03:50:05;98332.66;;;15.69;100.00
18988;BME280;5494;51.796;10.952;2023-07-31T03:52:34;98324.81;;;15.69;100.00
18988;BME280;5494;51.796;10.952;2023-07-31T03:55:02;98317.19;;;15.66;100.00
18988;BME280;5494;51.796;10.952;2023-07-31T03:57:30;98321.91;;;15.72;100.00
18988;BME280;5494;51.796;10.952;2023-07-31T04:00:00;98316.16;;;15.79;100.00
18988;BME280;5494;51.796;10.952;2023-07-31T04:02:38;98312.16;;;15.74;100.00
18988;BME280;5494;51.796;10.952;2023-07-31T04:05:06;98313.09;;;15.73;100.00
18988;BME280;5494;51.796;10.952;2023-07-31T04:07:35;98318.16;;;15.86;100.00
18988;BME280;5494;51.796;10.952;2023-07-31T04:10:04;98317.59;;;15.83;100.00
18988;BME280;5494;51.796;10.952;2023-07-31T04:12:32;98318.16;;;15.86;100.00
18988;BME280;5494;51.796;10.952;2023-07-31T04:15:02;98311.84;;;15.89;100.00
18988;BME280;5494;51.796;10.952;2023-07-31T04:17:30;98315.97;;;15.91;100.00
18988;BME280;5494;51.796;10.952;2023-07-31T04:19:58;98308.50;;;15.87;100.00
18988;BME280;5494;51.796;10.952;2023-07-31T04:22:27;98324.00;;;15.90;100.00
18988;BME280;5494;51.796;10.952;2023-07-31T04:24:55;98316.56;;;15.95;100.00
18988;BME280;5494;51.796;10.952;2023-07-31T04:27:23;98311.38;;;16.04;100.00
18988;BME280;5494;51.796;10.952;2023-07-31T04:29:51;98303.78;;;16.01;100.00
18988;BME280;5494;51.796;10.952;2023-07-31T04:32:21;98296.75;;;16.02;100.00
18988;BME280;5494;51.796;10.952;2023-07-31T04:34:49;98307.09;;;16.03;100.00
18988;BME280;5494;51.796;10.952;2023-07-31T04:37:17;98308.63;;;16.06;100.00
18988;BME280;5494;51.796;10.952;2023-07-31T04:39:45;98314.47;;;16.09;100.00
18988;BME280;5494;51.796;10.952;2023-07-31T04:42:13;98300.69;;;16.17;100.00
18988;BME280;5494;51.796;10.952;2023-07-31T04:44:41;98298.53;;;16.22;100.00
18988;BME280;5494;51.796;10.952;2023-07-31T04:47:09;98303.75;;;16.22;100.00
18988;BME280;5494;51.796;10.952;2023-07-31T04:49:39;98309.00;;;16.22;100.00
18988;BME280;5494;51.796;10.952;2023-07-31T04:52:07;98309.19;;;16.30;100.00
18988;BME280;5494;51.796;10.952;2023-07-31T04:54:35;98308.16;;;16.42;100.00
18988;BME280;5494;51.796;10.952;2023-07-31T04:57:05;98311.47;;;16.44;100.00
18988;BME280;5494;51.796;10.952;2023-07-31T04:59:33;98314.53;;;16.49;100.00
18988;BME280;5494;51.796;10.952;2023-07-31T05:02:02;98310.06;;;16.61;100.00
18988;BME280;5494;51.796;10.952;2023-07-31T05:04:32;98311.84;;;16.61;100.00
18988;BME280;5494;51.796;10.952;2023-07-31T05:07:02;98313.50;;;16.62;100.00
18988;BME280;5494;51.796;10.952;2023-07-31T05:09:30;98317.56;;;16.75;100.00
18988;BME280;5494;51.796;10.952;2023-07-31T05:11:58;98313.16;;;16.76;100.00
18988;BME280;5494;51.796;10.952;2023-07-31T05:14:26;98320.19;;;16.75;100.00
18988;BME280;5494;51.796;10.952;2023-07-31T05:16:54;98324.91;;;16.81;100.00
18988;BME280;5494;51.796;10.952;2023-07-31T05:19:23;98319.00;;;16.89;100.00
18988;BME280;5494;51.796;10.952;2023-07-31T05:21:51;98320.66;;;16.90;100.00
18988;BME280;5494;51.796;10.952;2023-07-31T05:24:20;98316.56;;;17.07;100.00
18988;BME280;5494;51.796;10.952;2023-07-31T05:26:48;98314.56;;;16.89;100.00
18988;BME280;5494;51.796;10.952;2023-07-31T05:29:16;98321.50;;;16.90;100.00
18988;BME280;5494;51.796;10.952;2023-07-31T05:31:44;98318.75;;;16.92;100.00
18988;BME280;5494;51.796;10.952;2023-07-31T05:34:12;98324.84;;;17.02;100.00
18988;BME280;5494;51.796;10.952;2023-07-31T05:36:40;98328.59;;;17.09;100.00
18988;BME280;5494;51.796;10.952;2023-07-31T05:39:09;98323.16;;;17.01;100.00
18988;BME280;5494;51.796;10.952;2023-07-31T05:41:38;98320.25;;;16.94;100.00
18988;BME280;5494;51.796;10.952;2023-07-31T05:44:06;98324.88;;;17.12;100.00
18988;BME280;5494;51.796;10.952;2023-07-31T05:46:34;98313.00;;;17.17;100.00
18988;BME280;5494;51.796;10.952;2023-07-31T05:49:02;98300.25;;;17.03;100.00
18988;BME280;5494;51.796;10.952;2023-07-31T05:51:30;98307.72;;;17.17;100.00
18988;BME280;5494;51.796;10.952;2023-07-31T05:53:58;98311.06;;;17.19;100.00
18988;BME280;5494;51.796;10.952;2023-07-31T05:56:26;98306.47;;;17.12;100.00
18988;BME280;5494;51.796;10.952;2023-07-31T05:58:56;98311.06;;;17.19;100.00
18988;BME280;5494;51.796;10.952;2023-07-31T06:01:24;98319.22;;;17.26;100.00
18988;BME280;5494;51.796;10.952;2023-07-31T06:03:52;98313.97;;;17.36;100.00
18988;BME280;5494;51.796;10.952;2023-07-31T06:06:20;98296.84;;;17.31;100.00
18988;BME280;5494;51.796;10.952;2023-07-31T06:08:48;98299.31;;;17.43;100.00
18988;BME280;5494;51.796;10.952;2023-07-31T06:11:18;98312.78;;;17.49;100.00
18988;BME280;5494;51.796;10.952;2023-07-31T06:13:46;98301.28;;;17.60;100.00
18988;BME280;5494;51.796;10.952;2023-07-31T06:16:16;98313.06;;;17.56;100.00
18988;BME280;5494;51.796;10.952;2023-07-31T06:18:44;98312.38;;;17.73;100.00
18988;BME280;5494;51.796;10.952;2023-07-31T06:21:13;98326.75;;;17.79;100.00
18988;BME280;5494;51.796;10.952;2023-07-31T06:23:41;98320.41;;;17.81;100.00
18988;BME280;5494;51.796;10.952;2023-07-31T06:26:09;98326.63;;;17.80;100.00
18988;BME280;5494;51.796;10.952;2023-07-31T06:28:38;98325.38;;;17.84;100.00
18988;BME280;5494;51.796;10.952;2023-07-31T06:31:06;98323.16;;;17.89;100.00
18988;BME280;5494;51.796;10.952;2023-07-31T06:33:35;98319.97;;;17.95;100.00
18988;BME280;5494;51.796;10.952;2023-07-31T06:36:04;98330.34;;;18.06;100.00
18988;BME280;5494;51.796;10.952;2023-07-31T06:38:32;98330.03;;;18.29;100.00
18988;BME280;5494;51.796;10.952;2023-07-31T06:41:00;98331.56;;;18.22;100.00
18988;BME280;5494;51.796;10.952;2023-07-31T06:43:28;98336.16;;;18.10;100.00
18988;BME280;5494;51.796;10.952;2023-07-31T06:45:56;98334.91;;;18.14;100.00
18988;BME280;5494;51.796;10.952;2023-07-31T06:48:24;98329.19;;;18.19;100.00
18988;BME280;5494;51.796;10.952;2023-07-31T06:50:54;98331.31;;;18.05;100.00
18988;BME280;5494;51.796;10.952;2023-07-31T06:53:22;98311.47;;;18.21;100.00
18988;BME280;5494;51.796;10.952;2023-07-31T06:55:50;98312.44;;;18.29;100.00
18988;BME280;5494;51.796;10.952;2023-07-31T06:58:19;98316.44;;;18.33;100.00
18988;BME280;5494;51.796;10.952;2023-07-31T07:00:47;98304.09;;;18.34;100.00
18988;BME280;5494;51.796;10.952;2023-07-31T07:03:18;98304.34;;;18.40;100.00
18988;BME280;5494;51.796;10.952;2023-07-31T07:05:47;98312.13;;;18.42;100.00
18988;BME280;5494;51.796;10.952;2023-07-31T07:08:16;98295.63;;;18.49;100.00
18988;BME280;5494;51.796;10.952;2023-07-31T07:10:47;98309.16;;;18.64;100.00
18988;BME280;5494;51.796;10.952;2023-07-31T07:13:15;98308.91;;;18.58;100.00
18988;BME280;5494;51.796;10.952;2023-07-31T07:15:48;98308.25;;;18.83;100.00
18988;BME280;5494;51.796;10.952;2023-07-31T07:18:16;98309.06;;;18.83;100.00
18988;BME280;5494;51.796;10.952;2023-07-31T07:20:47;98310.94;;;19.01;100.00
18988;BME280;5494;51.796;10.952;2023-07-31T07:23:17;98300.25;;;19.02;96.61
18988;BME280;5494;51.796;10.952;2023-07-31T07:25:46;98303.34;;;19.15;98.00
18988;BME280;5494;51.796;10.952;2023-07-31T07:28:15;98290.94;;;19.25;96.02
18988;BME280;5494;51.796;10.952;2023-07-31T07:30:43;98308.59;;;19.43;92.57
18988;BME280;5494;51.796;10.952;2023-07-31T07:33:11;98299.88;;;19.60;92.01
18988;BME280;5494;51.796;10.952;2023-07-31T07:35:40;98301.09;;;19.83;86.78
18988;BME280;5494;51.796;10.952;2023-07-31T07:38:08;98299.81;;;20.13;80.55
18988;BME280;5494;51.796;10.952;2023-07-31T07:40:40;98294.03;;;20.10;77.98
18988;BME280;5494;51.796;10.952;2023-07-31T07:43:08;98299.94;;;19.86;81.43
18988;BME280;5494;51.796;10.952;2023-07-31T07:45:36;98293.84;;;19.67;80.83
18988;BME280;5494;51.796;10.952;2023-07-31T07:48:05;98283.91;;;19.61;81.39
18988;BME280;5494;51.796;10.952;2023-07-31T07:50:33;98289.47;;;19.41;84.14
18988;BME280;5494;51.796;10.952;2023-07-31T07:53:01;98287.16;;;19.55;83.94
18988;BME280;5494;51.796;10.952;2023-07-31T07:55:30;98296.78;;;19.47;82.81
18988;BME280;5494;51.796;10.952;2023-07-31T07:58:00;98290.94;;;19.43;83.41
18988;BME280;5494;51.796;10.952;2023-07-31T08:00:28;98282.88;;;19.54;84.45
18988;BME280;5494;51.796;10.952;2023-07-31T08:02:56;98300.44;;;19.63;84.33
18988;BME280;5494;51.796;10.952;2023-07-31T08:05:25;98279.91;;;19.75;82.73
18988;BME280;5494;51.796;10.952;2023-07-31T08:07:53;98276.56;;;19.91;81.18
18988;BME280;5494;51.796;10.952;2023-07-31T08:10:21;98270.06;;;20.03;79.53
18988;BME280;5494;51.796;10.952;2023-07-31T08:12:49;98267.47;;;20.11;79.54
18988;BME280;5494;51.796;10.952;2023-07-31T08:15:19;98261.66;;;20.08;78.11
18988;BME280;5494;51.796;10.952;2023-07-31T08:17:47;98265.97;;;20.09;78.80
18988;BME280;5494;51.796;10.952;2023-07-31T08:20:15;98265.13;;;20.08;78.48
18988;BME280;5494;51.796;10.952;2023-07-31T08:22:43;98256.44;;;19.90;79.53
18988;BME280;5494;51.796;10.952;2023-07-31T08:25:11;98249.88;;;19.94;78.60
18988;BME280;5494;51.796;10.952;2023-07-31T08:27:43;98261.47;;;20.01;78.87
18988;BME280;5494;51.796;10.952;2023-07-31T08:30:12;98266.03;;;19.91;79.38
18988;BME280;5494;51.796;10.952;2023-07-31T08:32:41;98262.38;;;19.92;79.40
18988;BME280;5494;51.796;10.952;2023-07-31T08:35:10;98272.56;;;20.04;79.25
18988;BME280;5494;51.796;10.952;2023-07-31T08:37:38;98263.94;;;20.02;78.76
18988;BME280;5494;51.796;10.952;2023-07-31T08:40:08;98258.88;;;19.83;80.99
18988;BME280;5494;51.796;10.952;2023-07-31T08:42:44;98271.47;;;19.72;81.46
18988;BME280;5494;51.796;10.952;2023-07-31T08:45:15;98271.38;;;19.81;82.08
18988;BME280;5494;51.796;10.952;2023-07-31T08:47:47;98270.25;;;19.66;83.65
18988;BME280;5494;51.796;10.952;2023-07-31T08:50:19;98268.47;;;19.66;84.51
18988;BME280;5494;51.796;10.952;2023-07-31T08:52:50;98273.81;;;19.57;85.36
18988;BME280;5494;51.796;10.952;2023-07-31T08:55:19;98283.75;;;19.81;83.35
18988;BME280;5494;51.796;10.952;2023-07-31T08:57:52;98276.44;;;19.75;84.87
18988;BME280;5494;51.796;10.952;2023-07-31T09:00:21;98271.09;;;19.66;85.95
18988;BME280;5494;51.796;10.952;2023-07-31T09:02:59;98280.38;;;19.71;88.00
18988;BME280;5494;51.796;10.952;2023-07-31T09:05:31;98279.06;;;19.75;88.36
18988;BME280;5494;51.796;10.952;2023-07-31T09:08:02;98291.59;;;20.16;86.62
18988;BME280;5494;51.796;10.952;2023-07-31T09:10:31;98298.19;;;20.20;85.38
18988;BME280;5494;51.796;10.952;2023-07-31T09:13:00;98297.13;;;20.05;87.19
18988;BME280;5494;51.796;10.952;2023-07-31T09:15:28;98296.09;;;19.98;88.77
18988;BME280;5494;51.796;10.952;2023-07-31T09:18:07;98293.59;;;19.96;88.75
18988;BME280;5494;51.796;10.952;2023-07-31T09:20:36;98291.78;;;19.79;88.67
18988;BME280;5494;51.796;10.952;2023-07-31T09:23:09;98289.78;;;19.91;89.39
18988;BME280;5494;51.796;10.952;2023-07-31T09:25:39;98285.47;;;19.90;89.95
18988;BME280;5494;51.796;10.952;2023-07-31T09:28:09;98271.03;;;20.02;89.56
18988;BME280;5494;51.796;10.952;2023-07-31T09:30:48;98268.13;;;20.13;90.57
18988;BME280;5494;51.796;10.952;2023-07-31T09:33:18;98261.25;;;20.20;87.12
18988;BME280;5494;51.796;10.952;2023-07-31T09:35:47;98256.16;;;20.27;89.16
18988;BME280;5494;51.796;10.952;2023-07-31T09:38:16;98247.66;;;20.07;90.30
18988;BME280;5494;51.796;10.952;2023-07-31T09:40:47;98258.94;;;20.43;89.33
18988;BME280;5494;51.796;10.952;2023-07-31T09:43:19;98243.94;;;20.86;84.35
18988;BME280;5494;51.796;10.952;2023-07-31T09:45:48;98233.97;;;20.71;83.70
18988;BME280;5494;51.796;10.952;2023-07-31T09:48:24;98233.69;;;20.91;83.27
18988;BME280;5494;51.796;10.952;2023-07-31T09:50:54;98218.75;;;21.23;80.41
18988;BME280;5494;51.796;10.952;2023-07-31T09:53:29;98226.69;;;21.23;79.20
18988;BME280;5494;51.796;10.952;2023-07-31T09:55:58;98208.53;;;21.29;77.62
18988;BME280;5494;51.796;10.952;2023-07-31T09:58:29;98206.63;;;20.97;78.29
18988;BME280;5494;51.796;10.952;2023-07-31T10:00:58;98208.88;;;20.75;80.67
18988;BME280;5494;51.796;10.952;2023-07-31T10:03:31;98204.69;;;20.57;82.70
18988;BME280;5494;51.796;10.952;2023-07-31T10:06:02;98196.41;;;20.43;84.28
18988;BME280;5494;51.796;10.952;2023-07-31T10:08:34;98210.59;;;20.42;86.58
18988;BME280;5494;51.796;10.952;2023-07-31T10:11:05;98202.97;;;20.14;95.49
18988;BME280;5494;51.796;10.952;2023-07-31T10:13:35;98204.78;;;20.13;96.46
18988;BME280;5494;51.796;10.952;2023-07-31T10:16:04;98196.88;;;20.13;98.08
18988;BME280;5494;51.796;10.952;2023-07-31T10:18:36;98189.97;;;20.12;98.02
18988;BME280;5494;51.796;10.952;2023-07-31T10:21:04;98201.91;;;20.24;93.10
18988;BME280;5494;51.796;10.952;2023-07-31T10:23:33;98190.19;;;20.27;96.56
18988;BME280;5494;51.796;10.952;2023-07-31T10:26:03;98200.63;;;20.70;94.23
18988;BME280;5494;51.796;10.952;2023-07-31T10:28:34;98199.06;;;20.52;88.48
18988;BME280;5494;51.796;10.952;2023-07-31T10:31:05;98216.16;;;20.73;89.48
18988;BME280;5494;51.796;10.952;2023-07-31T10:33:35;98213.50;;;20.65;92.95
18988;BME280;5494;51.796;10.952;2023-07-31T10:36:13;98211.81;;;20.64;89.92
18988;BME280;5494;51.796;10.952;2023-07-31T10:38:43;98218.38;;;20.94;91.12
18988;BME280;5494;51.796;10.952;2023-07-31T10:41:11;98207.78;;;20.94;89.66
18988;BME280;5494;51.796;10.952;2023-07-31T10:43:40;98194.03;;;20.74;88.57
18988;BME280;5494;51.796;10.952;2023-07-31T10:46:09;98194.75;;;20.93;89.50
18988;BME280;5494;51.796;10.952;2023-07-31T10:48:41;98193.91;;;20.92;86.24
18988;BME280;5494;51.796;10.952;2023-07-31T10:51:12;98194.91;;;20.99;86.12
18988;BME280;5494;51.796;10.952;2023-07-31T10:53:40;98195.63;;;21.17;86.21
18988;BME280;5494;51.796;10.952;2023-07-31T10:56:10;98188.09;;;20.89;82.54
18988;BME280;5494;51.796;10.952;2023-07-31T10:58:44;98196.19;;;20.79;86.28
18988;BME280;5494;51.796;10.952;2023-07-31T11:01:13;98179.00;;;20.75;87.93
18988;BME280;5494;51.796;10.952;2023-07-31T11:03:45;98182.03;;;20.88;83.10
18988;BME280;5494;51.796;10.952;2023-07-31T11:06:16;98172.44;;;21.03;82.21
18988;BME280;5494;51.796;10.952;2023-07-31T11:08:47;98171.84;;;21.34;78.45
18988;BME280;5494;51.796;10.952;2023-07-31T11:11:18;98174.63;;;21.16;79.83
18988;BME280;5494;51.796;10.952;2023-07-31T11:13:48;98163.91;;;21.34;79.73
18988;BME280;5494;51.796;10.952;2023-07-31T11:16:19;98171.69;;;21.35;76.82
18988;BME280;5494;51.796;10.952;2023-07-31T11:18:50;98169.72;;;21.29;77.45
18988;BME280;5494;51.796;10.952;2023-07-31T11:21:23;98171.16;;;21.07;78.37
18988;BME280;5494;51.796;10.952;2023-07-31T11:23:55;98158.13;;;21.30;77.80
18988;BME280;5494;51.796;10.952;2023-07-31T11:26:27;98184.09;;;21.43;74.77
18988;BME280;5494;51.796;10.952;2023-07-31T11:28:57;98143.56;;;21.18;74.83
18988;BME280;5494;51.796;10.952;2023-07-31T11:31:25;98150.16;;;21.14;75.59
18988;BME280;5494;51.796;10.952;2023-07-31T11:34:05;98146.81;;;20.96;76.68
18988;BME280;5494;51.796;10.952;2023-07-31T11:36:34;98140.72;;;20.95;77.03
18988;BME280;5494;51.796;10.952;2023-07-31T11:39:05;98127.19;;;20.90;76.06
18988;BME280;5494;51.796;10.952;2023-07-31T11:41:33;98128.81;;;20.83;79.13
18988;BME280;5494;51.796;10.952;2023-07-31T11:44:01;98129.13;;;20.64;79.04
18988;BME280;5494;51.796;10.952;2023-07-31T11:46:47;98141.19;;;20.66;79.68
18988;BME280;5494;51.796;10.952;2023-07-31T11:49:16;98127.47;;;20.71;79.06
18988;BME280;5494;51.796;10.952;2023-07-31T11:51:45;98133.63;;;20.88;77.41
18988;BME280;5494;51.796;10.952;2023-07-31T11:54:13;98131.47;;;20.99;77.73
18988;BME280;5494;51.796;10.952;2023-07-31T11:56:43;98142.56;;;21.11;77.60
18988;BME280;5494;51.796;10.952;2023-07-31T11:59:12;98126.22;;;21.32;76.17
18988;BME280;5494;51.796;10.952;2023-07-31T12:01:40;98145.41;;;21.42;74.34
18988;BME280;5494;51.796;10.952;2023-07-31T12:04:10;98136.09;;;21.70;71.73
18988;BME280;5494;51.796;10.952;2023-07-31T12:06:40;98133.91;;;21.90;70.92
18988;BME280;5494;51.796;10.952;2023-07-31T12:09:08;98120.16;;;22.03;69.29
18988;BME280;5494;51.796;10.952;2023-07-31T12:11:43;98135.16;;;22.18;66.21
18988;BME280;5494;51.796;10.952;2023-07-31T12:14:20;98129.63;;;21.97;68.10
18988;BME280;5494;51.796;10.952;2023-07-31T12:16:54;98128.34;;;22.24;66.87
18988;BME280;5494;51.796;10.952;2023-07-31T12:19:25;98095.47;;;22.41;64.43
18988;BME280;5494;51.796;10.952;2023-07-31T12:21:56;98113.00;;;22.50;65.69
18988;BME280;5494;51.796;10.952;2023-07-31T12:24:26;98119.13;;;23.04;64.42
18988;BME280;5494;51.796;10.952;2023-07-31T12:26:54;98109.88;;;23.23;61.36
18988;BME280;5494;51.796;10.952;2023-07-31T12:29:23;98103.13;;;23.35;61.05
18988;BME280;5494;51.796;10.952;2023-07-31T12:31:51;98105.31;;;23.84;60.67
18988;BME280;5494;51.796;10.952;2023-07-31T12:34:20;98096.03;;;24.09;58.13
18988;BME280;5494;51.796;10.952;2023-07-31T12:36:48;98089.16;;;24.29;56.96
18988;BME280;5494;51.796;10.952;2023-07-31T12:39:18;98098.03;;;24.37;55.89
18988;BME280;5494;51.796;10.952;2023-07-31T12:41:47;98090.91;;;24.22;57.00
18988;BME280;5494;51.796;10.952;2023-07-31T12:44:15;98094.75;;;24.34;56.84
18988;BME280;5494;51.796;10.952;2023-07-31T12:46:46;98093.25;;;24.47;56.38
18988;BME280;5494;51.796;10.952;2023-07-31T12:49:14;98099.41;;;24.47;56.25
18988;BME280;5494;51.796;10.952;2023-07-31T12:51:42;98102.97;;;23.51;58.13
18988;BME280;5494;51.796;10.952;2023-07-31T12:54:11;98099.91;;;23.40;60.22
18988;BME280;5494;51.796;10.952;2023-07-31T12:56:40;98085.25;;;23.67;59.25
18988;BME280;5494;51.796;10.952;2023-07-31T12:59:08;98087.97;;;23.44;59.17
18988;BME280;5494;51.796;10.952;2023-07-31T13:01:36;98070.94;;;23.01;59.83
18988;BME280;5494;51.796;10.952;2023-07-31T13:04:05;98069.72;;;22.89;61.45
18988;BME280;5494;51.796;10.952;2023-07-31T13:06:38;98074.28;;;22.72;62.70
18988;BME280;5494;51.796;10.952;2023-07-31T13:09:07;98085.28;;;22.30;65.94